Tahuya, WA

12:58 AM PDT on August 31, 2014 (GMT -0700)
Happy Hollow Estates | Change Station
CLOSE
Current Station
Personal Weather Station
Location: Belfair, WA
Elevation: 203 ft
Nearby Weather Stations

Elev 203 ft 47.38 °N, 122.92 °W | Updated 13 seconds ago

Overcast
Overcast
55.9 °F
Feels Like 55.9 °F
N
3.8
Wind Variable Wind from West
Gusts 6.0 mph

Today
High -- | Low -- °F
--% Chance of Precip.
Yesterday
High -- | Low -- °F
Precip. -- in
6:29 AM 7:54 PM
Waxing Crescent, 28% visible
Pressure 29.97 in
Visibility 10.0 miles
Clouds Mostly Cloudy 800 ft
Dew Point 55 °F
Humidity 97%
Rainfall 0.06 in
Snow Depth Not available.
UV 0 out of 12
Pollen 2.60 out of 12
PM2.5 Good
Flu Activity Not available.
METAR KSHN 310753Z AUTO 25009KT 10SM BKN008 13/12 A2996 RMK AO2 SLP147 T01330122 402170133 TSNO

More Conditions Fewer Conditions

Pressure 29.97 in
Visibility 10.0 miles
Clouds Mostly Cloudy 800 ft
Dew Point 55 °F
Humidity 97%
Rainfall 0.06 in
Snow Depth Not available.
UV 0 out of 12
Pollen 2.60 out of 12
PM2.5 Good
Flu Activity Not available.
METAR KSHN 310753Z AUTO 25009KT 10SM BKN008 13/12 A2996 RMK AO2 SLP147 T01330122 402170133 TSNO

More Conditions Fewer Conditions

10-Day Weather Forecast

Almanac

Astronomy

Aug. 31, 2014 Rise Set
Actual Time 6:29 AM PDT 7:54 PM PDT
Civil Twilight 5:57 AM PDT 8:25 PM PDT
Nautical Twilight 5:19 AM PDT 9:04 PM PDT
Astronomical Twilight 4:37 AM PDT 9:45 PM PDT
Moon 12:47 PM PDT 10:46 PM PDT
Length of Visible Light 14h 27m
Length of Day
13h 24m
Tomorrow will be 3m 16s shorter.
Waxing Crescent, 28% of the Moon is Illuminated
Today
Waxing Crescent
Sep 2
First Quarter
Sep 8
Full
Sep 15
Last Quarter
Sep 24
New

Today's Extremes

State Highs State Lows

Community

WunderPhotos

Upload Photos

1,748,809 photos uploaded!

Nearby

Air Quality

  Air Quality AQ Index Pollutant
Yesterday Good
OZONE
Yesterday Good
PM2.5
Current Good
PM2.5

Snow Depth

Station Depth Elevation
Mount Crag 0 in 4050 ft
Dungeness 0 in 4100 ft
Burnt Mountain 0 in 4200 ft
Rex River 0 in 4000 ft
Alpine Meadows 0 in 3500 ft

Earthquake Activity

City Distance Mag. Time & Date
No recent earthquake activity has been reported nearby.
Minimum magnitude displayed is 2.5.

Coastal Water Temperatures

Place Temperature
Port Townsend, WA 53.1 °F
Seattle, WA 55.9 °F
Friday Harbor, WA 53.1 °F
Tacoma, WA 55.0 °F

Nearby Weather Stations